Time;durP1;ratioP1;P1;durP2;ratioP2;P2;SDS_P1;SDS_P2;PMS_P1;PMS_P2;Temp;Humidity;BMP_temperature;BMP_pressure;BME280_temperature;BME280_humidity;BME280_pressure;Samples;Min_cycle;Max_cycle;Signal;HPM_P1;HPM_P2
2022/10/04 00:02:05;;;;;;;0.10;0.10;;;;;;;7.35;98.79;99101.34;1719851;82;21526;-69
2022/10/04 00:04:46;;;;;;;0.03;0.00;;;;;;;7.36;99.01;99100.30;1715957;83;20988;-70
2022/10/04 00:07:18;;;;;;;0.17;0.00;;;;;;;7.35;99.19;99089.41;1728242;83;21046;-71
2022/10/04 00:10:14;;;;;;;0.53;0.00;;;;;;;7.34;98.79;99093.87;1733386;82;20981;-70
2022/10/04 00:12:48;;;;;;;0.00;0.00;;;;;;;7.34;98.47;99104.47;1721327;82;20990;-70
2022/10/04 00:15:31;;;;;;;0.00;0.00;;;;;;;7.34;98.60;99093.87;1721063;83;22375;-72
2022/10/04 00:18:12;;;;;;;0.00;0.00;;;;;;;7.36;98.46;99101.63;1717781;82;21040;-71
2022/10/04 00:20:53;;;;;;;0.00;0.00;;;;;;;7.37;98.42;99103.28;1698458;82;21241;-70
2022/10/04 00:23:27;;;;;;;1.50;0.00;;;;;;;7.36;98.43;99099.78;1724599;82;21564;-72
2022/10/04 00:26:02;;;;;;;0.03;0.00;;;;;;;7.36;98.57;99103.77;1693032;82;21640;-69
2022/10/04 00:28:40;;;;;;;1.13;0.00;;;;;;;7.36;98.55;99105.61;1704650;83;21693;-75
2022/10/04 00:31:17;;;;;;;0.33;0.00;;;;;;;7.36;98.60;99102.44;1716762;83;21058;-70
2022/10/04 00:33:54;;;;;;;0.00;0.00;;;;;;;7.37;98.89;99101.95;1709028;83;21005;-70
2022/10/04 00:36:30;;;;;;;0.00;0.00;;;;;;;7.37;98.95;99112.56;1715878;83;21003;-71
2022/10/04 00:39:05;;;;;;;0.28;0.00;;;;;;;7.37;99.06;99108.06;1726712;82;21029;-69
2022/10/04 00:41:49;;;;;;;0.07;0.07;;;;;;;7.38;99.22;99104.90;1718570;80;21503;-70
2022/10/04 00:44:33;;;;;;;0.00;0.00;;;;;;;7.37;99.24;99114.69;1716461;82;21157;-71
2022/10/04 00:47:04;;;;;;;0.00;0.00;;;;;;;7.35;99.32;99108.77;1716987;82;21121;-70
2022/10/04 00:49:34;;;;;;;0.03;0.00;;;;;;;7.35;99.59;99110.61;1732318;81;20985;-69
2022/10/04 00:52:14;;;;;;;0.10;0.10;;;;;;;7.35;99.79;99111.94;1759180;81;21060;-70
2022/10/04 00:54:49;;;;;;;0.00;0.00;;;;;;;7.37;99.93;99119.99;1753413;81;21061;-71
2022/10/04 00:57:27;;;;;;;0.63;0.00;;;;;;;7.43;99.92;99109.11;1751009;81;21298;-69
2022/10/04 01:00:04;;;;;;;0.00;0.00;;;;;;;7.47;100.00;99106.88;1739571;81;21362;-69
2022/10/04 01:02:43;;;;;;;0.00;0.00;;;;;;;7.47;100.00;99106.37;1751732;81;21038;-70
2022/10/04 01:05:25;;;;;;;1.57;0.00;;;;;;;7.44;100.00;99110.76;1744133;81;21331;-69
2022/10/04 01:07:57;;;;;;;0.87;0.00;;;;;;;7.44;100.00;99112.08;1754240;81;20994;-70
2022/10/04 01:10:31;;;;;;;0.10;0.00;;;;;;;7.49;100.00;99110.15;1757654;81;21060;-71
2022/10/04 01:13:08;;;;;;;0.00;0.00;;;;;;;7.50;100.00;99113.94;1758694;81;21068;-71
2022/10/04 01:16:01;;;;;;;0.00;0.00;;;;;;;7.51;100.00;99113.42;1691497;83;21082;-69
2022/10/04 01:18:32;;;;;;;0.10;0.00;;;;;;;7.55;100.00;99119.95;1679206;84;21025;-71
2022/10/04 01:21:07;;;;;;;2.03;0.83;;;;;;;7.60;100.00;99113.04;1697957;81;21031;-72
2022/10/04 01:23:56;;;;;;;0.00;0.00;;;;;;;7.64;100.00;99116.63;1709527;82;21075;-70
2022/10/04 01:26:31;;;;;;;0.10;0.00;;;;;;;7.66;100.00;99122.55;1722459;81;21018;-69
2022/10/04 01:29:17;;;;;;;2.17;0.00;;;;;;;7.67;100.00;99122.88;1727498;81;21073;-69
2022/10/04 01:31:48;;;;;;;0.00;0.00;;;;;;;7.68;100.00;99121.84;1714449;82;21049;-72
2022/10/04 01:34:19;;;;;;;2.17;0.00;;;;;;;7.70;100.00;99115.83;1718949;80;21496;-70
2022/10/04 01:36:51;;;;;;;0.10;0.00;;;;;;;7.72;100.00;99117.77;1730496;81;21024;-71
2022/10/04 01:39:21;;;;;;;0.43;0.00;;;;;;;7.72;100.00;99118.61;1707184;82;21036;-70
2022/10/04 01:42:14;;;;;;;0.00;0.00;;;;;;;7.73;100.00;99122.07;1724817;81;21582;-70
2022/10/04 01:44:52;;;;;;;2.47;0.00;;;;;;;7.72;100.00;99121.75;1713844;82;21050;-71
2022/10/04 01:47:24;;;;;;;0.00;0.00;;;;;;;7.70;100.00;99135.20;1727455;82;21002;-76
2022/10/04 01:49:54;;;;;;;0.00;0.00;;;;;;;7.69;100.00;99135.42;1708853;82;21153;-71
2022/10/04 01:52:29;;;;;;;0.00;0.00;;;;;;;7.69;100.00;99131.45;1735784;81;21455;-71
2022/10/04 01:55:06;;;;;;;0.27;0.10;;;;;;;7.68;100.00;99133.27;1747679;82;21083;-75
2022/10/04 01:57:43;;;;;;;0.00;0.00;;;;;;;7.68;100.00;99142.55;1731334;82;21034;-70
2022/10/04 02:00:12;;;;;;;0.00;0.00;;;;;;;7.68;100.00;99143.87;1725881;82;22237;-70
2022/10/04 02:02:56;;;;;;;1.50;0.00;;;;;;;7.68;100.00;99147.03;1735606;82;21093;-69
2022/10/04 02:05:41;;;;;;;0.00;0.00;;;;;;;7.67;100.00;99145.42;1720502;82;20990;-71
2022/10/04 02:08:12;;;;;;;0.00;0.00;;;;;;;7.65;100.00;99150.08;1734921;81;21089;-71
2022/10/04 02:10:39;;;;;;;0.20;0.00;;;;;;;7.65;100.00;99158.03;1737443;82;21034;-70
2022/10/04 02:13:17;;;;;;;0.00;0.00;;;;;;;7.64;100.00;99155.09;1735064;82;21443;-70
2022/10/04 02:15:44;;;;;;;;;;;;;;;7.63;100.00;99160.06;1738256;82;21097;-69
2022/10/04 02:18:15;;;;;;;0.00;0.00;;;;;;;7.64;100.00;99163.05;1733705;81;20209;-70
2022/10/04 02:20:43;;;;;;;0.00;0.00;;;;;;;7.57;100.00;99163.84;1730918;82;20986;-70
2022/10/04 02:23:11;;;;;;;0.77;0.00;;;;;;;7.58;100.00;99160.67;1729738;82;21125;-70
2022/10/04 02:25:38;;;;;;;0.00;0.00;;;;;;;7.60;100.00;99162.09;1724994;81;21020;-72
2022/10/04 02:28:12;;;;;;;0.00;0.00;;;;;;;7.63;100.00;99173.33;1731428;80;21069;-72
2022/10/04 02:32:56;;;;;;;0.13;0.10;;;;;;;7.65;100.00;99172.62;1732133;81;21616;-75
2022/10/04 02:33:16;;;;;;;0.73;0.00;;;;;;;7.69;100.00;99176.53;1725834;82;21037;-74
2022/10/04 02:35:46;;;;;;;0.37;0.37;;;;;;;7.71;100.00;99171.85;1735884;82;21037;-78
2022/10/04 02:38:21;;;;;;;1.50;0.00;;;;;;;7.72;100.00;99169.48;1733591;82;21108;-72
2022/10/04 02:41:02;;;;;;;0.20;0.00;;;;;;;7.71;100.00;99170.00;1732825;80;21516;-74
2022/10/04 02:43:36;;;;;;;0.33;0.20;;;;;;;7.72;100.00;99174.80;1721568;82;20999;-72
2022/10/04 02:46:25;;;;;;;0.30;0.00;;;;;;;7.71;100.00;99177.96;1736445;81;21148;-73
2022/10/04 02:49:01;;;;;;;0.00;0.00;;;;;;;7.71;100.00;99193.87;1729958;82;21021;-73
2022/10/04 02:51:53;;;;;;;0.10;0.00;;;;;;;7.68;100.00;99193.45;1714551;82;21041;-71
2022/10/04 02:54:28;;;;;;;1.13;0.00;;;;;;;7.65;100.00;99188.05;1735288;82;20990;-73
2022/10/04 02:56:56;;;;;;;0.00;0.00;;;;;;;7.65;100.00;99192.02;1732090;82;21040;-71
2022/10/04 02:59:23;;;;;;;0.00;0.00;;;;;;;7.61;100.00;99189.46;1734468;82;21005;-76
2022/10/04 03:02:01;;;;;;;0.00;0.00;;;;;;;7.58;100.00;99191.17;1733353;82;21020;-71
2022/10/04 03:04:33;;;;;;;0.08;0.00;;;;;;;7.56;100.00;99201.16;1736172;82;21048;-82
2022/10/04 03:07:04;;;;;;;0.40;0.10;;;;;;;7.53;100.00;99201.54;1719316;81;21507;-73
2022/10/04 03:09:31;;;;;;;1.43;0.00;;;;;;;7.50;100.00;99202.77;1722697;82;21074;-74
2022/10/04 03:11:58;;;;;;;0.50;0.10;;;;;;;7.48;100.00;99204.80;1729476;82;21074;-72
2022/10/04 03:14:27;;;;;;;0.00;0.00;;;;;;;7.47;100.00;99213.75;1733043;82;21104;-73
2022/10/04 03:16:59;;;;;;;0.07;0.00;;;;;;;7.48;100.00;99206.13;1733081;82;20983;-76
2022/10/04 03:19:28;;;;;;;0.00;0.00;;;;;;;7.49;100.00;99211.72;1743656;81;21010;-71
2022/10/04 03:22:00;;;;;;;0.00;0.00;;;;;;;7.51;100.00;99211.53;1726644;81;21078;-71
2022/10/04 03:24:49;;;;;;;0.10;0.00;;;;;;;7.51;100.00;99212.85;1736867;81;21009;-71
2022/10/04 03:27:25;;;;;;;0.27;0.00;;;;;;;7.52;100.00;99218.48;1728974;82;21014;-72
2022/10/04 03:29:53;;;;;;;0.00;0.00;;;;;;;7.46;100.00;99218.75;1734834;82;21038;-73
2022/10/04 03:32:20;;;;;;;0.00;0.00;;;;;;;7.47;100.00;99225.67;1713924;82;20981;-76
2022/10/04 03:34:59;;;;;;;0.00;0.00;;;;;;;7.47;100.00;99223.55;1726365;82;20989;-75
2022/10/04 03:37:29;;;;;;;0.00;0.00;;;;;;;7.44;100.00;99228.74;1725130;82;21538;-71
2022/10/04 03:39:57;;;;;;;0.00;0.00;;;;;;;7.41;100.00;99234.42;1720799;82;21041;-73
2022/10/04 03:42:28;;;;;;;0.00;0.00;;;;;;;7.40;100.00;99228.31;1719619;82;20999;-71
2022/10/04 03:45:00;;;;;;;0.00;0.00;;;;;;;7.40;100.00;99235.42;1722925;82;21542;-74
2022/10/04 03:47:35;;;;;;;0.00;0.00;;;;;;;7.38;100.00;99240.94;1724591;82;20950;-75
2022/10/04 03:50:13;;;;;;;0.00;0.00;;;;;;;7.40;100.00;99242.89;1744226;82;21517;-71
2022/10/04 03:52:45;;;;;;;0.00;0.00;;;;;;;7.40;100.00;99245.54;1724349;82;21546;-71
2022/10/04 03:55:15;;;;;;;0.00;0.00;;;;;;;7.42;100.00;99245.32;1728561;81;21033;-71
2022/10/04 03:57:41;;;;;;;0.03;0.00;;;;;;;7.43;100.00;99243.00;1727372;82;21121;-71
2022/10/04 04:00:08;;;;;;;1.55;0.00;;;;;;;7.45;100.00;99244.95;1738325;82;21052;-72
2022/10/04 04:02:46;;;;;;;0.10;0.00;;;;;;;7.44;100.00;99252.60;1731121;82;20982;-71
2022/10/04 04:05:34;;;;;;;0.00;0.00;;;;;;;7.41;100.00;99249.00;1736714;81;20989;-73
2022/10/04 04:08:34;;;;;;;0.00;0.00;;;;;;;7.40;100.00;99250.84;1736978;82;21006;-72
2022/10/04 04:11:04;;;;;;;24.80;14.47;;;;;;;7.39;100.00;99251.84;1730044;81;21022;-71
2022/10/04 04:15:32;;;;;;;0.10;0.10;;;;;;;7.44;100.00;99257.91;1810852;79;22518;-72
2022/10/04 04:18:06;;;;;;;0.10;0.00;;;;;;;7.38;100.00;99266.12;1785462;80;20945;-72
2022/10/04 04:20:37;;;;;;;0.37;0.00;;;;;;;7.40;100.00;99265.91;1749616;81;21096;-71
2022/10/04 04:23:15;;;;;;;0.87;0.40;;;;;;;7.38;100.00;99270.59;1774822;79;20995;-72
2022/10/04 04:25:46;;;;;;;0.63;0.20;;;;;;;7.37;100.00;99271.62;1756632;79;21073;-71
2022/10/04 04:28:32;;;;;;;0.30;0.30;;;;;;;7.35;100.00;99274.45;1741862;81;21120;-71
2022/10/04 04:31:04;;;;;;;0.63;0.17;;;;;;;7.34;100.00;99278.63;1717392;82;21034;-72
2022/10/04 04:33:59;;;;;;;0.10;0.03;;;;;;;7.36;100.00;99278.73;1756754;79;20991;-70
2022/10/04 04:36:32;;;;;;;0.00;0.00;;;;;;;7.40;100.00;99295.07;1791884;79;21116;-73
2022/10/04 04:39:33;;;;;;;0.10;0.00;;;;;;;7.41;100.00;99288.25;1750542;81;21098;-74
2022/10/04 04:42:14;;;;;;;0.53;0.10;;;;;;;7.43;100.00;99281.44;1757509;81;20997;-72
2022/10/04 04:44:54;;;;;;;0.30;0.00;;;;;;;7.47;100.00;99289.31;1741845;81;21017;-71
2022/10/04 04:47:45;;;;;;;0.63;0.10;;;;;;;7.52;100.00;99294.05;1727360;81;21010;-71
2022/10/04 04:50:25;;;;;;;0.40;0.07;;;;;;;7.55;100.00;99294.48;1740678;82;22133;-72
2022/10/04 04:53:04;;;;;;;0.00;0.00;;;;;;;7.57;100.00;99303.06;1728369;81;21021;-75
2022/10/04 04:55:43;;;;;;;0.00;0.00;;;;;;;7.58;100.00;99306.53;1739593;81;21015;-70
2022/10/04 04:58:20;;;;;;;0.10;0.00;;;;;;;7.57;100.00;99312.83;1730873;81;20996;-73
2022/10/04 05:00:55;;;;;;;0.23;0.10;;;;;;;7.57;100.00;99319.46;1685765;83;21433;-74
2022/10/04 05:03:22;;;;;;;0.10;0.00;;;;;;;7.23;100.00;99264.57;1703266;83;21018;-73
2022/10/04 05:05:50;;;;;;;0.20;0.10;;;;;;;7.56;100.00;99333.23;1656387;84;21055;-72
2022/10/04 05:08:29;;;;;;;0.77;0.00;;;;;;;7.56;100.00;99335.89;1678797;84;21221;-71
2022/10/04 05:11:14;;;;;;;1.33;0.00;;;;;;;7.58;100.00;99343.66;1703376;83;21006;-74
2022/10/04 05:13:48;;;;;;;0.50;0.00;;;;;;;7.59;100.00;99344.80;1677309;83;21090;-72
2022/10/04 05:16:23;;;;;;;0.93;0.00;;;;;;;7.63;100.00;99343.06;1658441;85;21158;-73
2022/10/04 05:19:14;;;;;;;0.20;0.00;;;;;;;7.71;100.00;99350.89;1663208;85;21122;-74
2022/10/04 05:21:45;;;;;;;0.00;0.00;;;;;;;7.79;100.00;99354.20;1663503;85;21095;-74
2022/10/04 05:24:31;;;;;;;0.00;0.00;;;;;;;7.91;100.00;99354.49;1664165;85;21078;-73
2022/10/04 05:27:08;;;;;;;0.00;0.00;;;;;;;7.99;100.00;99364.94;1663976;85;21018;-77
2022/10/04 05:29:38;;;;;;;0.37;0.10;;;;;;;8.04;100.00;99370.16;1658297;86;21126;-78
2022/10/04 05:32:29;;;;;;;0.47;0.10;;;;;;;8.07;100.00;99368.45;1641292;86;21019;-75
2022/10/04 05:34:58;;;;;;;0.00;0.00;;;;;;;8.14;100.00;99374.11;1660982;86;21094;-77
2022/10/04 05:37:57;;;;;;;0.93;0.43;;;;;;;8.26;100.00;99376.21;1659035;86;21031;-76
2022/10/04 05:40:38;;;;;;;1.80;0.00;;;;;;;8.25;100.00;99364.78;1654451;86;21215;-76
2022/10/04 05:43:26;;;;;;;0.20;0.10;;;;;;;8.39;100.00;99387.70;1620809;86;21074;-75
2022/10/04 05:46:18;;;;;;;3.90;0.10;;;;;;;8.42;99.77;99386.55;1636883;86;21051;-89
2022/10/04 05:48:50;;;;;;;0.33;0.20;;;;;;;8.42;99.64;99391.86;1619709;87;21091;-81
2022/10/04 05:51:29;;;;;;;1.23;0.10;;;;;;;8.45;100.00;99391.95;1631453;86;21045;-80
2022/10/04 05:54:03;;;;;;;0.73;0.20;;;;;;;8.45;99.73;99390.11;1635840;85;21007;-79
2022/10/04 05:56:55;;;;;;;0.20;0.10;;;;;;;8.46;99.68;99392.28;1637126;85;21000;-79
2022/10/04 05:59:48;;;;;;;3.33;0.10;;;;;;;8.50;99.81;99392.19;1649171;87;21024;-80
2022/10/04 06:02:53;;;;;;;0.10;0.10;;;;;;;8.50;99.57;99395.66;1664950;85;21054;-76
2022/10/04 06:05:37;;;;;;;0.30;0.10;;;;;;;8.52;99.93;99398.94;1666060;85;21047;-84
2022/10/04 06:08:39;;;;;;;0.10;0.10;;;;;;;8.57;100.00;99405.81;1659065;85;21027;-76
2022/10/04 06:11:39;;;;;;;0.30;0.10;;;;;;;8.63;100.00;99402.87;1649455;86;21110;-72
2022/10/04 06:14:21;;;;;;;0.13;0.10;;;;;;;8.73;100.00;99403.82;1636617;85;21105;-75
2022/10/04 06:17:35;;;;;;;0.10;0.10;;;;;;;8.80;99.87;99405.99;1677259;83;21126;-73
2022/10/04 06:20:13;;;;;;;0.20;0.10;;;;;;;8.85;99.41;99413.36;1663482;85;21042;-74
2022/10/04 06:22:45;;;;;;;2.43;0.10;;;;;;;8.89;99.06;99419.41;1637203;86;21039;-72
2022/10/04 06:25:28;;;;;;;0.27;0.10;;;;;;;8.94;98.64;99420.13;1667830;84;21075;-72
2022/10/04 06:28:15;;;;;;;2.70;0.10;;;;;;;8.99;98.63;99434.16;1680600;84;21023;-77
2022/10/04 06:31:10;;;;;;;0.20;0.13;;;;;;;9.01;98.68;99432.13;1681284;84;21501;-74
2022/10/04 06:34:06;;;;;;;0.17;0.10;;;;;;;9.09;98.55;99429.27;1711618;81;21208;-72
2022/10/04 06:36:44;;;;;;;0.47;0.10;;;;;;;9.18;98.09;99438.70;1736045;82;21527;-81
2022/10/04 06:39:22;;;;;;;0.20;0.10;;;;;;;9.27;98.58;99439.35;1721716;81;21049;-84
2022/10/04 06:42:08;;;;;;;0.23;0.17;;;;;;;9.35;97.97;99439.15;1734584;82;20978;-73
2022/10/04 06:45:11;;;;;;;2.17;0.95;;;;;;;9.45;97.51;99445.40;1709958;81;21044;-73
2022/10/04 06:48:08;;;;;;;0.50;0.10;;;;;;;9.52;96.14;99451.55;1700245;83;20973;-72
2022/10/04 06:50:55;;;;;;;0.20;0.20;;;;;;;9.56;95.28;99458.09;1735816;81;21094;-74
2022/10/04 06:53:43;;;;;;;2.33;0.50;;;;;;;9.58;94.23;99455.23;1734752;82;21026;-74
2022/10/04 06:56:20;;;;;;;0.30;0.30;;;;;;;9.60;93.90;99461.17;1727234;81;21076;-77
2022/10/04 06:59:24;;;;;;;0.63;0.30;;;;;;;9.61;93.70;99457.50;1767294;81;21033;-76
2022/10/04 07:01:56;;;;;;;1.67;0.13;;;;;;;9.61;93.79;99466.81;1762873;81;21006;-78
2022/10/04 07:04:56;;;;;;;1.90;0.20;;;;;;;9.61;93.36;99469.48;1757762;81;21034;-78
2022/10/04 07:07:36;;;;;;;0.63;0.10;;;;;;;9.60;92.69;99469.16;1758552;81;21100;-79
2022/10/04 07:10:24;;;;;;;1.60;0.70;;;;;;;9.55;92.30;99469.26;1725221;81;21563;-78
2022/10/04 07:13:18;;;;;;;0.60;0.30;;;;;;;9.59;92.50;99476.81;1721180;82;21507;-81
2022/10/04 07:16:12;;;;;;;0.33;0.10;;;;;;;9.63;91.35;99480.22;1721855;82;21129;-77
2022/10/04 07:18:56;;;;;;;0.83;0.40;;;;;;;9.61;92.09;99480.13;1715833;83;21081;-79
2022/10/04 07:21:29;;;;;;;0.27;0.20;;;;;;;9.63;92.51;99479.41;1723942;82;21498;-80
2022/10/04 07:24:02;;;;;;;0.83;0.23;;;;;;;9.71;92.71;99480.52;1737684;82;21522;-78
2022/10/04 07:26:46;;;;;;;0.50;0.20;;;;;;;9.80;92.32;99489.95;1744871;81;21023;-77
2022/10/04 07:29:27;;;;;;;1.17;0.10;;;;;;;9.87;92.03;99493.44;1736676;82;21061;-81
2022/10/04 07:32:16;;;;;;;2.93;0.30;;;;;;;9.93;91.87;99488.63;1744125;81;21433;-80
2022/10/04 07:35:00;;;;;;;3.60;0.20;;;;;;;10.00;91.60;99502.44;1688467;82;21050;-83
2022/10/04 07:37:32;;;;;;;1.93;0.23;;;;;;;10.05;90.35;99505.31;1745668;82;21609;-83
2022/10/04 07:40:19;;;;;;;2.20;0.93;;;;;;;10.06;90.23;99507.77;1742626;82;20999;-72
2022/10/04 07:42:58;;;;;;;0.95;0.33;;;;;;;10.06;89.87;99514.43;1740990;82;21061;-73
2022/10/04 07:45:34;;;;;;;0.30;0.20;;;;;;;10.05;89.42;99523.95;1725162;81;21026;-76
2022/10/04 07:48:22;;;;;;;1.12;0.33;;;;;;;9.96;88.97;99516.67;1693458;83;21011;-71
2022/10/04 07:51:27;;;;;;;1.27;0.40;;;;;;;9.92;90.51;99524.76;1645478;86;21065;-73
2022/10/04 07:54:17;;;;;;;9.20;7.70;;;;;;;9.92;90.19;99528.23;1686489;83;21013;-71
2022/10/04 07:56:53;;;;;;;4.13;2.87;;;;;;;9.96;90.24;99533.16;1702076;83;21112;-72
2022/10/04 07:59:53;;;;;;;1.83;0.97;;;;;;;10.00;90.26;99535.23;1708561;83;21063;-69
2022/10/04 08:02:53;;;;;;;0.50;0.20;;;;;;;10.06;90.87;99536.25;1707487;83;21097;-66
2022/10/04 08:05:34;;;;;;;0.37;0.10;;;;;;;10.11;90.24;99547.09;1699964;83;21045;-70
2022/10/04 08:08:36;;;;;;;1.53;0.20;;;;;;;10.11;90.03;99549.75;1704500;83;21045;-65
2022/10/04 08:11:41;;;;;;;0.80;0.13;;;;;;;10.11;90.87;99546.59;1698436;83;21566;-64
2022/10/04 08:14:51;;;;;;;0.80;0.30;;;;;;;10.06;90.23;99550.38;1703584;83;21041;-65
2022/10/04 08:17:51;;;;;;;1.07;0.20;;;;;;;10.04;90.47;99550.25;1699912;84;21129;-67
2022/10/04 08:20:54;;;;;;;3.17;1.30;;;;;;;9.99;89.68;99556.72;1679000;84;21113;-72
2022/10/04 08:23:46;;;;;;;0.93;0.30;;;;;;;9.98;90.00;99557.73;1701048;83;21026;-69
2022/10/04 08:26:45;;;;;;;1.20;0.47;;;;;;;10.01;90.69;99553.34;1702144;83;21046;-66
2022/10/04 08:29:59;;;;;;;0.80;0.53;;;;;;;10.05;90.88;99563.89;1669682;84;21112;-67
2022/10/04 08:32:43;;;;;;;1.13;0.10;;;;;;;10.02;89.91;99570.94;1671961;84;21066;-79
2022/10/04 08:35:38;;;;;;;1.70;0.80;;;;;;;9.98;90.08;99578.52;1696059;83;21134;-82
2022/10/04 08:38:47;;;;;;;1.10;1.00;;;;;;;10.00;90.52;99582.30;1673297;85;21160;-83
2022/10/04 08:41:41;;;;;;;0.93;0.40;;;;;;;9.99;89.50;99584.67;1701621;83;21041;-74
2022/10/04 08:44:34;;;;;;;0.40;0.20;;;;;;;9.97;89.69;99584.88;1681515;83;21129;-72
2022/10/04 08:47:20;;;;;;;0.67;0.53;;;;;;;9.99;90.24;99591.33;1702482;83;21060;-80
2022/10/04 08:50:09;;;;;;;0.70;0.40;;;;;;;10.02;90.42;99589.58;1667207;84;21041;-76
2022/10/04 08:53:08;;;;;;;0.67;0.40;;;;;;;10.04;90.15;99600.35;1703089;83;21025;-76
2022/10/04 08:56:31;;;;;;;0.77;0.27;;;;;;;10.00;90.17;99604.45;1670727;85;21084;-75
2022/10/04 08:59:24;;;;;;;0.83;0.30;;;;;;;9.99;90.96;99604.64;1700424;83;21342;-77
2022/10/04 09:02:29;;;;;;;1.20;0.30;;;;;;;9.93;89.63;99614.26;1671430;84;21010;-80
2022/10/04 09:05:21;;;;;;;0.63;0.30;;;;;;;9.87;89.98;99611.05;1673994;85;21005;-78
2022/10/04 09:08:37;;;;;;;1.67;0.50;;;;;;;9.85;91.02;99612.61;1669272;85;21539;-79
2022/10/04 09:11:31;;;;;;;0.80;0.60;;;;;;;9.83;90.59;99615.98;1705263;83;20963;-80
2022/10/04 09:14:06;;;;;;;0.83;0.30;;;;;;;9.82;91.46;99626.83;1671480;84;21141;-79
2022/10/04 09:16:48;;;;;;;2.90;0.70;;;;;;;9.81;90.28;99623.32;1710554;82;21050;-84
2022/10/04 09:19:39;;;;;;;0.90;0.50;;;;;;;9.82;90.58;99628.97;1760020;81;21006;-82
2022/10/04 09:22:55;;;;;;;1.97;0.57;;;;;;;9.84;90.16;99630.91;1756480;81;21009;-80
2022/10/04 09:26:01;;;;;;;1.83;0.80;;;;;;;9.85;89.79;99643.22;1757302;81;20962;-79
2022/10/04 09:29:01;;;;;;;1.17;0.50;;;;;;;9.85;89.76;99648.54;1752499;81;21037;-82
2022/10/04 09:31:53;;;;;;;3.97;1.13;;;;;;;9.88;90.53;99660.62;1754066;81;21080;-69
2022/10/04 09:34:50;;;;;;;0.93;0.83;;;;;;;9.90;90.24;99659.91;1734678;81;20998;-69
2022/10/04 09:37:42;;;;;;;3.17;0.70;;;;;;;9.99;90.93;99648.05;1728142;81;21081;-69
2022/10/04 09:40:50;;;;;;;0.97;0.70;;;;;;;10.08;90.09;99668.67;1683907;84;21189;-68
2022/10/04 09:43:59;;;;;;;1.92;0.95;;;;;;;10.14;90.36;99664.67;1692046;82;21066;-68
2022/10/04 09:47:04;;;;;;;4.85;3.37;;;;;;;10.26;90.29;99667.55;1695103;84;21541;-67
2022/10/04 09:50:01;;;;;;;1.97;1.10;;;;;;;10.34;89.61;99674.59;1753680;81;21041;-70
2022/10/04 09:52:56;;;;;;;0.80;0.80;;;;;;;10.35;89.01;99673.55;1676071;84;21180;-67
2022/10/04 09:55:56;;;;;;;1.60;1.30;;;;;;;10.42;89.38;99676.23;1655300;85;21088;-67
2022/10/04 09:58:35;;;;;;;2.20;1.20;;;;;;;10.52;89.30;99679.31;1693151;82;21129;-68
2022/10/04 10:01:22;;;;;;;2.30;2.10;;;;;;;10.62;89.02;99674.90;1635558;84;20994;-70
2022/10/04 10:04:02;;;;;;;6.15;0.90;;;;;;;10.66;89.09;99683.63;1703842;84;21133;-71
2022/10/04 10:06:56;;;;;;;2.50;1.73;;;;;;;10.71;87.31;99679.81;1675740;84;21108;-72
2022/10/04 10:16:21;;;;;;;1.65;0.88;;;;;;;10.77;86.69;99696.02;1684117;83;21550;-79
2022/10/04 10:19:14;;;;;;;1.00;0.60;;;;;;;10.75;86.77;99686.89;1642909;85;21506;-77
2022/10/04 10:22:13;;;;;;;1.23;0.60;;;;;;;10.77;87.16;99690.69;1722854;82;21022;-79
2022/10/04 10:25:19;;;;;;;1.57;1.00;;;;;;;10.81;86.67;99694.58;1701639;82;21056;-69
2022/10/04 10:28:24;;;;;;;1.00;0.50;;;;;;;10.82;86.72;99706.90;1702900;82;21012;-69
2022/10/04 10:31:30;;;;;;;2.70;0.70;;;;;;;10.84;86.09;99705.66;1700411;82;21038;-73
2022/10/04 10:34:20;;;;;;;2.50;1.07;;;;;;;10.86;86.00;99704.94;1719441;81;20993;-72
2022/10/04 10:37:18;;;;;;;1.97;1.40;;;;;;;10.95;86.00;99709.56;1723773;81;20986;-76
2022/10/04 10:40:05;;;;;;;4.20;0.93;;;;;;;11.04;86.20;99708.33;1727201;81;22313;-72
2022/10/04 10:43:02;;;;;;;1.52;1.10;;;;;;;11.14;86.42;99709.75;1724528;81;21514;-72
2022/10/04 10:46:09;;;;;;;0.70;0.70;;;;;;;11.24;85.45;99711.47;1700982;81;20931;-72
2022/10/04 10:49:08;;;;;;;2.02;0.50;;;;;;;11.27;83.56;99712.39;1689502;83;21573;-73
2022/10/04 10:52:33;;;;;;;2.47;0.45;;;;;;;11.22;83.73;99712.19;1678267;83;21000;-72
2022/10/04 10:55:25;;;;;;;2.25;1.45;;;;;;;11.25;85.00;99711.78;1693564;83;21033;-72
2022/10/04 10:58:14;;;;;;;1.22;0.80;;;;;;;11.33;84.74;99713.41;1727198;81;21113;-74
2022/10/04 11:00:53;;;;;;;0.87;0.67;;;;;;;11.40;84.63;99715.55;1685071;84;21547;-71
2022/10/04 11:03:30;;;;;;;1.37;1.07;;;;;;;11.44;84.05;99721.59;1730061;82;21028;-75
2022/10/04 11:06:40;;;;;;;10.00;1.05;;;;;;;11.49;84.10;99707.63;1731881;82;20997;-73
2022/10/04 11:09:35;;;;;;;1.20;1.10;;;;;;;11.59;84.23;99723.20;1733987;82;20974;-72
2022/10/04 11:12:49;;;;;;;1.92;1.15;;;;;;;11.60;82.24;99723.49;1734917;82;21040;-72
2022/10/04 11:15:50;;;;;;;3.83;3.40;;;;;;;11.55;83.14;99730.81;1739276;81;21047;-73
2022/10/04 11:18:38;;;;;;;1.40;1.30;;;;;;;11.58;83.91;99728.22;1735330;82;21002;-72
2022/10/04 11:21:27;;;;;;;2.62;1.75;;;;;;;11.61;83.19;99731.82;1731589;81;21022;-72
2022/10/04 11:24:18;;;;;;;2.95;1.07;;;;;;;11.60;82.75;99735.50;1664624;82;21004;-72
2022/10/04 11:26:54;;;;;;;1.20;0.90;;;;;;;11.61;83.27;99738.49;1726339;82;20995;-72
2022/10/04 11:29:50;;;;;;;4.03;3.70;;;;;;;11.64;83.06;99734.89;1742364;81;21046;-72
2022/10/04 11:33:09;;;;;;;1.95;1.20;;;;;;;11.65;83.21;99739.70;1757781;81;21002;-73
2022/10/04 11:36:06;;;;;;;2.05;1.22;;;;;;;11.62;83.36;99746.79;1714811;82;21518;-73
2022/10/04 11:39:02;;;;;;;2.27;1.80;;;;;;;11.54;84.16;99747.84;1741841;82;21569;-73
2022/10/04 11:42:12;;;;;;;8.30;7.50;;;;;;;11.49;85.17;99761.83;1732504;82;21014;-72
2022/10/04 11:45:09;;;;;;;1.70;1.60;;;;;;;11.43;86.87;99758.66;1733678;81;22144;-72
2022/10/04 11:48:06;;;;;;;4.45;1.85;;;;;;;11.25;88.09;99766.48;1729158;82;21118;-74
2022/10/04 11:51:11;;;;;;;4.93;2.73;;;;;;;11.02;89.79;99762.38;1736917;82;21558;-72
2022/10/04 11:54:06;;;;;;;5.33;2.70;;;;;;;10.85;91.14;99763.30;1745849;81;20998;-73
2022/10/04 11:57:07;;;;;;;2.70;1.50;;;;;;;10.65;92.72;99769.12;1701962;81;20971;-72
2022/10/04 11:59:59;;;;;;;1.97;1.87;;;;;;;10.50;94.34;99770.10;1750709;81;21538;-73
2022/10/04 12:02:49;;;;;;;2.90;1.57;;;;;;;10.42;95.36;99772.16;1759570;81;21017;-74
2022/10/04 12:05:54;;;;;;;6.23;4.57;;;;;;;10.37;96.51;99772.73;1762745;81;21089;-72
2022/10/04 12:08:32;;;;;;;3.93;3.23;;;;;;;10.33;97.36;99780.30;1761017;81;21057;-73
2022/10/04 12:15:10;;;;;;;3.43;2.27;;;;;;;10.30;98.44;99776.73;1757644;81;21097;-72
2022/10/04 12:18:00;;;;;;;4.67;4.07;;;;;;;10.30;98.71;99775.40;1756323;81;21001;-72
2022/10/04 12:20:52;;;;;;;5.20;4.17;;;;;;;10.32;98.67;99776.50;1687640;83;21557;-72
2022/10/04 12:23:45;;;;;;;3.60;1.60;;;;;;;10.29;97.94;99783.03;1706113;83;21571;-73
2022/10/04 12:26:46;;;;;;;3.03;1.47;;;;;;;10.24;97.71;99779.33;1694775;84;21073;-71
2022/10/04 12:30:00;;;;;;;1.27;1.23;;;;;;;10.24;98.23;99769.48;1687071;84;21455;-73
2022/10/04 12:32:56;;;;;;;3.07;2.13;;;;;;;10.30;98.47;99769.19;1713221;83;21070;-72
2022/10/04 12:36:02;;;;;;;1.85;1.75;;;;;;;10.36;98.21;99772.93;1692236;83;21053;-72
2022/10/04 12:39:07;;;;;;;4.43;1.27;;;;;;;10.40;97.17;99775.53;1725644;82;21073;-73
2022/10/04 12:41:57;;;;;;;4.83;1.57;;;;;;;10.48;97.06;99766.01;1700652;84;21057;-73
2022/10/04 12:44:51;;;;;;;3.40;1.57;;;;;;;10.58;96.35;99762.42;1697114;83;21263;-73
2022/10/04 12:47:43;;;;;;;0.70;0.70;;;;;;;10.69;95.45;99769.83;1699939;84;21176;-73
2022/10/04 12:50:48;;;;;;;2.67;0.50;;;;;;;10.75;94.28;99776.71;1706080;82;21085;-73
2022/10/04 12:53:38;;;;;;;1.43;0.80;;;;;;;10.80;93.15;99776.41;1698193;84;21069;-72
2022/10/04 12:56:12;;;;;;;2.23;0.90;;;;;;;10.86;91.38;99784.92;1698191;83;21073;-71
2022/10/04 12:59:26;;;;;;;1.83;0.87;;;;;;;10.90;90.42;99783.48;1680309;84;21519;-72
2022/10/04 13:02:13;;;;;;;0.93;0.70;;;;;;;10.95;90.41;99790.89;1693420;83;20994;-72
2022/10/04 13:05:00;;;;;;;2.47;0.90;;;;;;;10.94;90.19;99793.23;1692933;84;21014;-72
2022/10/04 13:07:47;;;;;;;1.40;0.62;;;;;;;10.96;89.76;99799.70;1699538;83;21052;-71
2022/10/04 13:10:28;;;;;;;2.80;0.90;;;;;;;10.98;88.80;99797.16;1721654;82;21546;-70
2022/10/04 13:13:18;;;;;;;0.53;0.53;;;;;;;11.03;88.46;99805.34;1664937;85;21095;-70
2022/10/04 13:16:04;;;;;;;2.23;0.70;;;;;;;11.05;88.45;99804.63;1705303;82;21469;-72